BIENTÔT MET'MAP
version 2.0 !

Prévue avant fin octobre,
la nouvelle version sera
plus belle, plus complète
et hébergée sur un serveur
3 fois plus puissant...
et toujours gratuite !


Pas compatible ?
Essayez la version Mobile !

SE CONNECTER : | S'inscrire | Disclaimer | Découvrir Orbifly |
Code OACI :

TAF - LGBL Aghialos Volos - 09 Apr 2020 20:04 UTC - Data Source NOAA   


- Altitude de l'aérodrome : 83 ft
- Code IATA : VOL
- Pas de NOTAMs connus.


LGBL - Aghialos Volos

Dernier METAR connu : 2015/08/11 07:50 LGBL 110750Z VRB03KT 9999 FEW040 31/14 Q1011
TAF TAF LGBL
Valide du 09 à 18h jusqu'au 10 à 03h UTC


091700Z 0918/1003 28007KT 9999 FEW030

Source NOAA


MET'MAP, la Météo Aéronautique d'un coup d'oeil ! - Copyright ORBIFLY Décembre 2007

Développement & Programmation : Alexandra Zaïnal
Co-Développement : Marc-Olivier Méhu
Soutien technique & logistique : Manuel Goepfert
Conception & Financement : Baudouin d'Aumeries